createdAt,value
2023-04-11T00:00:19.076Z,100.00
2023-04-11T00:02:47.771Z,100.00
2023-04-11T00:05:16.634Z,100.00
2023-04-11T00:07:45.116Z,100.00
2023-04-11T00:10:14.934Z,100.00
2023-04-11T00:12:44.260Z,100.00
2023-04-11T00:15:12.808Z,100.00
2023-04-11T00:17:45.876Z,100.00
2023-04-11T00:20:15.090Z,100.00
2023-04-11T00:22:47.863Z,100.00
2023-04-11T00:25:16.241Z,100.00
2023-04-11T00:27:44.639Z,100.00
2023-04-11T00:30:30.822Z,100.00
2023-04-11T00:32:59.881Z,100.00
2023-04-11T00:35:35.416Z,100.00
2023-04-11T00:38:05.055Z,100.00
2023-04-11T00:40:34.081Z,100.00
2023-04-11T00:43:22.493Z,100.00
2023-04-11T00:46:17.439Z,100.00
2023-04-11T00:48:46.483Z,100.00
2023-04-11T00:51:25.925Z,100.00
2023-04-11T00:53:56.964Z,100.00
2023-04-11T00:56:25.481Z,100.00
2023-04-11T00:58:55.291Z,100.00
2023-04-11T01:01:25.334Z,100.00
2023-04-11T01:03:54.311Z,100.00
2023-04-11T01:06:23.687Z,100.00
2023-04-11T01:08:57.491Z,100.00
2023-04-11T01:11:26.956Z,100.00
2023-04-11T01:13:55.750Z,100.00
2023-04-11T01:16:24.371Z,100.00
2023-04-11T01:18:53.135Z,100.00
2023-04-11T01:21:22.593Z,100.00
2023-04-11T01:23:53.022Z,100.00
2023-04-11T01:26:21.695Z,100.00
2023-04-11T01:28:51.469Z,100.00
2023-04-11T01:31:34.253Z,100.00
2023-04-11T01:34:03.187Z,100.00
2023-04-11T01:36:32.532Z,100.00
2023-04-11T01:39:01.808Z,100.00
2023-04-11T01:41:30.489Z,100.00
2023-04-11T01:44:04.376Z,100.00
2023-04-11T01:46:32.728Z,100.00
2023-04-11T01:49:01.833Z,100.00
2023-04-11T01:51:30.804Z,100.00
2023-04-11T01:54:00.626Z,100.00
2023-04-11T01:56:32.545Z,100.00
2023-04-11T01:59:02.561Z,100.00
2023-04-11T02:01:49.915Z,100.00
2023-04-11T02:04:18.841Z,100.00
2023-04-11T02:06:47.737Z,100.00
2023-04-11T02:09:16.948Z,100.00
2023-04-11T02:11:45.930Z,100.00
2023-04-11T02:14:14.786Z,100.00
2023-04-11T02:16:56.413Z,100.00
2023-04-11T02:19:26.450Z,100.00
2023-04-11T02:21:54.931Z,100.00
2023-04-11T02:24:23.725Z,100.00
2023-04-11T02:26:52.421Z,100.00
2023-04-11T02:29:28.600Z,100.00
2023-04-11T02:31:57.266Z,100.00
2023-04-11T02:34:26.018Z,100.00
2023-04-11T02:36:58.497Z,100.00
2023-04-11T02:39:27.088Z,100.00
2023-04-11T02:41:57.631Z,100.00
2023-04-11T02:44:26.551Z,100.00
2023-04-11T02:46:56.295Z,100.00
2023-04-11T02:49:26.436Z,100.00
2023-04-11T02:51:57.171Z,100.00
2023-04-11T02:54:26.000Z,100.00
2023-04-11T02:56:56.069Z,100.00
2023-04-11T02:59:24.358Z,100.00
2023-04-11T03:02:00.441Z,100.00
2023-04-11T03:04:29.423Z,100.00
2023-04-11T03:07:07.539Z,100.00
2023-04-11T03:09:37.581Z,100.00
2023-04-11T03:12:08.323Z,100.00
2023-04-11T03:14:38.173Z,100.00
2023-04-11T03:17:09.679Z,100.00
2023-04-11T03:19:38.471Z,100.00
2023-04-11T03:22:06.737Z,100.00
2023-04-11T03:24:41.798Z,100.00
2023-04-11T03:27:10.560Z,100.00
2023-04-11T03:29:43.725Z,100.00
2023-04-11T03:32:18.216Z,100.00
2023-04-11T03:34:46.731Z,100.00
2023-04-11T03:37:15.391Z,100.00
2023-04-11T03:39:44.195Z,100.00
2023-04-11T03:42:13.243Z,100.00
2023-04-11T03:44:41.933Z,100.00
2023-04-11T03:47:10.420Z,100.00
2023-04-11T03:49:42.622Z,100.00
2023-04-11T03:52:11.523Z,100.00
2023-04-11T03:54:40.041Z,100.00
2023-04-11T03:57:10.742Z,100.00
2023-04-11T03:59:40.452Z,100.00
2023-04-11T04:02:10.938Z,100.00
2023-04-11T04:04:48.741Z,100.00
2023-04-11T04:07:27.610Z,100.00
2023-04-11T04:10:00.693Z,100.00
2023-04-11T04:12:29.186Z,99.22
2023-04-11T04:15:25.286Z,94.33
2023-04-11T04:17:59.129Z,85.86
2023-04-11T04:20:42.478Z,81.96
2023-04-11T04:23:18.335Z,81.50
2023-04-11T04:26:06.151Z,77.95
2023-04-11T04:28:46.132Z,75.72
2023-04-11T04:31:22.382Z,72.46
2023-04-11T04:33:52.137Z,68.14
2023-04-11T04:36:28.649Z,66.36
2023-04-11T04:39:02.259Z,66.77
2023-04-11T04:41:34.363Z,65.22
2023-04-11T04:44:04.595Z,64.92
2023-04-11T04:46:46.569Z,63.33
2023-04-11T04:49:15.287Z,61.77
2023-04-11T04:51:43.568Z,59.01
2023-04-11T04:54:16.087Z,58.96
2023-04-11T04:56:45.890Z,58.20
2023-04-11T04:59:15.797Z,57.41
2023-04-11T05:01:47.030Z,56.28
2023-04-11T05:04:16.497Z,54.95
2023-04-11T05:06:49.299Z,55.15
2023-04-11T05:09:18.130Z,55.27
2023-04-11T05:11:47.951Z,57.26
2023-04-11T05:14:16.482Z,58.76
2023-04-11T05:16:45.157Z,60.67
2023-04-11T05:19:14.592Z,62.08
2023-04-11T05:21:46.583Z,64.34
2023-04-11T05:24:16.723Z,65.47
2023-04-11T05:26:47.129Z,65.19
2023-04-11T05:29:17.685Z,63.62
2023-04-11T05:31:52.138Z,63.46
2023-04-11T05:34:20.988Z,63.99
2023-04-11T05:36:50.259Z,64.45
2023-04-11T05:39:19.245Z,65.50
2023-04-11T05:41:47.529Z,63.83
2023-04-11T05:44:16.416Z,64.01
2023-04-11T05:46:45.482Z,65.76
2023-04-11T05:49:13.716Z,68.22
2023-04-11T05:51:41.962Z,72.05
2023-04-11T05:54:10.729Z,70.56
2023-04-11T05:56:42.434Z,68.20
2023-04-11T05:59:13.143Z,67.38
2023-04-11T06:01:41.617Z,64.39
2023-04-11T06:04:09.951Z,61.72
2023-04-11T06:06:38.867Z,61.67
2023-04-11T06:09:09.306Z,60.93
2023-04-11T06:11:37.799Z,60.26
2023-04-11T06:14:06.237Z,58.03
2023-04-11T06:16:36.825Z,54.92
2023-04-11T06:19:05.439Z,51.57
2023-04-11T06:21:34.050Z,50.92
2023-04-11T06:24:05.419Z,48.10
2023-04-11T06:26:37.404Z,46.30
2023-04-11T06:29:06.267Z,45.87
2023-04-11T06:31:34.506Z,44.00
2023-04-11T06:34:03.004Z,43.11
2023-04-11T06:36:32.725Z,42.51
2023-04-11T06:39:01.644Z,42.49
2023-04-11T06:41:29.993Z,41.90
2023-04-11T06:43:58.408Z,42.10
2023-04-11T06:46:32.914Z,41.51
2023-04-11T06:49:01.300Z,41.55
2023-04-11T06:51:29.965Z,41.96
2023-04-11T06:53:59.010Z,43.73
2023-04-11T06:56:27.671Z,44.00
2023-04-11T06:59:04.122Z,45.46
2023-04-11T07:01:37.887Z,47.13
2023-04-11T07:04:06.724Z,49.40
2023-04-11T07:06:40.652Z,50.84
2023-04-11T07:09:15.094Z,49.29
2023-04-11T07:11:43.356Z,45.52
2023-04-11T07:14:17.563Z,43.95
2023-04-11T07:16:47.515Z,43.30
2023-04-11T07:19:16.068Z,42.45
2023-04-11T07:21:44.269Z,43.40
2023-04-11T07:24:13.431Z,43.82
2023-04-11T07:26:42.331Z,43.73
2023-04-11T07:29:14.365Z,43.76
2023-04-11T07:31:45.142Z,42.62
2023-04-11T07:34:13.593Z,41.55
2023-04-11T07:36:43.355Z,40.21
2023-04-11T07:39:12.353Z,38.94
2023-04-11T07:41:40.714Z,39.48
2023-04-11T07:44:09.736Z,39.05
2023-04-11T07:46:38.074Z,37.81
2023-04-11T07:49:07.238Z,37.02
2023-04-11T07:51:35.480Z,36.50
2023-04-11T07:54:05.415Z,37.40
2023-04-11T07:56:34.198Z,37.23
2023-04-11T07:59:05.080Z,37.53
2023-04-11T08:01:33.477Z,37.46
2023-04-11T08:04:02.071Z,37.33
2023-04-11T08:06:31.629Z,37.81
2023-04-11T08:09:01.118Z,38.90
2023-04-11T08:11:29.825Z,40.05
2023-04-11T08:14:04.507Z,39.92
2023-04-11T08:16:35.736Z,38.82
2023-04-11T08:19:04.445Z,38.81
2023-04-11T08:21:37.513Z,38.58
2023-04-11T08:24:08.620Z,38.67
2023-04-11T08:26:37.100Z,39.20
2023-04-11T08:29:05.420Z,38.97
2023-04-11T08:31:34.824Z,38.68
2023-04-11T08:34:06.177Z,38.53
2023-04-11T08:36:36.110Z,38.91
2023-04-11T08:39:05.009Z,39.87
2023-04-11T08:41:35.411Z,40.11
2023-04-11T08:44:04.018Z,40.02
2023-04-11T08:46:32.973Z,39.91
2023-04-11T08:49:01.434Z,39.69
2023-04-11T08:51:29.895Z,39.25
2023-04-11T08:54:06.135Z,39.37
2023-04-11T08:56:36.081Z,39.07
2023-04-11T08:59:08.909Z,39.35
2023-04-11T09:01:40.806Z,38.96
2023-04-11T09:04:11.693Z,38.75
2023-04-11T09:06:40.424Z,38.94
2023-04-11T09:09:09.798Z,38.98
2023-04-11T09:11:54.257Z,39.63
2023-04-11T09:14:26.907Z,40.68
2023-04-11T09:16:59.872Z,40.21
2023-04-11T09:19:29.916Z,41.04
2023-04-11T09:22:02.572Z,41.81
2023-04-11T09:24:32.000Z,42.86
2023-04-11T09:27:19.654Z,43.11
2023-04-11T09:29:49.274Z,43.90
2023-04-11T09:32:33.993Z,43.61
2023-04-11T09:35:12.088Z,44.38
2023-04-11T09:37:56.751Z,44.74
2023-04-11T09:40:26.426Z,43.44
2023-04-11T09:43:02.500Z,43.31
2023-04-11T09:45:38.293Z,42.49
2023-04-11T09:48:13.017Z,41.78
2023-04-11T09:50:41.457Z,42.89
2023-04-11T09:53:10.873Z,42.97
2023-04-11T09:55:39.832Z,42.71
2023-04-11T09:58:08.087Z,41.43
2023-04-11T10:00:36.910Z,40.72
2023-04-11T10:03:05.445Z,40.62
2023-04-11T10:05:36.264Z,40.77
2023-04-11T10:08:08.579Z,41.79
2023-04-11T10:10:36.902Z,42.30
2023-04-11T10:13:35.462Z,42.30
2023-04-11T10:16:16.664Z,42.33
2023-04-11T10:18:51.309Z,42.40
2023-04-11T10:21:36.027Z,43.70
2023-04-11T10:24:10.624Z,43.26
2023-04-11T10:26:54.106Z,43.10
2023-04-11T10:29:40.998Z,42.50
2023-04-11T10:32:12.662Z,42.72
2023-04-11T10:34:50.794Z,43.29
2023-04-11T10:37:37.419Z,42.89
2023-04-11T10:40:10.291Z,42.76
2023-04-11T10:42:44.820Z,42.60
2023-04-11T10:45:22.454Z,42.97
2023-04-11T10:47:56.648Z,42.44
2023-04-11T10:50:28.005Z,42.15
2023-04-11T10:53:01.266Z,42.25
2023-04-11T10:55:33.019Z,44.14
2023-04-11T10:58:08.305Z,43.72
2023-04-11T11:00:52.884Z,42.53
2023-04-11T11:03:26.837Z,42.39
2023-04-11T11:06:06.450Z,42.11
2023-04-11T11:08:41.915Z,42.91
2023-04-11T11:11:11.037Z,42.51
2023-04-11T11:13:41.923Z,41.64
2023-04-11T11:16:14.246Z,41.59
2023-04-11T11:18:54.015Z,41.89
2023-04-11T11:21:27.885Z,42.44
2023-04-11T11:23:58.361Z,41.39
2023-04-11T11:26:39.380Z,41.82
2023-04-11T11:29:09.129Z,42.05
2023-04-11T11:31:42.190Z,41.80
2023-04-11T11:34:23.078Z,42.20
2023-04-11T11:36:53.429Z,42.95
2023-04-11T11:39:23.285Z,43.23
2023-04-11T11:41:52.277Z,42.81
2023-04-11T11:44:25.087Z,43.28
2023-04-11T11:47:01.253Z,44.19
2023-04-11T11:49:43.608Z,43.32
2023-04-11T11:52:13.464Z,43.90
2023-04-11T11:54:45.762Z,43.86
2023-04-11T11:57:22.973Z,43.76
2023-04-11T11:59:55.147Z,43.37
2023-04-11T12:02:23.906Z,44.00
2023-04-11T12:05:00.328Z,43.76
2023-04-11T12:07:37.337Z,44.57
2023-04-11T12:10:08.514Z,44.45
2023-04-11T12:12:39.939Z,44.77
2023-04-11T12:15:12.446Z,44.94
2023-04-11T12:17:41.114Z,44.29
2023-04-11T12:20:11.582Z,44.46
2023-04-11T12:22:41.299Z,43.48
2023-04-11T12:25:14.692Z,43.93
2023-04-11T12:27:44.952Z,44.46
2023-04-11T12:30:15.533Z,44.26
2023-04-11T12:32:51.312Z,44.35
2023-04-11T12:35:19.938Z,43.56
2023-04-11T12:37:48.583Z,43.80
2023-04-11T12:40:18.095Z,43.16
2023-04-11T12:42:56.308Z,43.29
2023-04-11T12:45:26.466Z,43.75
2023-04-11T12:47:55.580Z,44.35
2023-04-11T12:50:28.494Z,45.40
2023-04-11T12:52:57.534Z,45.57
2023-04-11T12:55:25.827Z,45.95
2023-04-11T12:57:55.723Z,44.66
2023-04-11T13:00:24.172Z,44.51
2023-04-11T13:03:12.544Z,43.38
2023-04-11T13:05:41.732Z,43.85
2023-04-11T13:08:09.930Z,44.17
2023-04-11T13:10:38.421Z,43.86
2023-04-11T13:13:17.555Z,43.62
2023-04-11T13:15:47.441Z,43.98
2023-04-11T13:18:15.805Z,45.19
2023-04-11T13:20:46.356Z,44.50
2023-04-11T13:23:17.059Z,45.14
2023-04-11T13:25:48.937Z,46.30
2023-04-11T13:28:18.931Z,47.07
2023-04-11T13:30:47.286Z,47.31
2023-04-11T13:33:16.524Z,46.83
2023-04-11T13:35:45.463Z,47.34
2023-04-11T13:38:16.509Z,47.68
2023-04-11T13:40:46.691Z,49.32
2023-04-11T13:43:15.186Z,49.51
2023-04-11T13:45:44.092Z,51.43
2023-04-11T13:48:14.967Z,51.20
2023-04-11T13:50:43.315Z,50.54
2023-04-11T13:53:11.693Z,50.04
2023-04-11T13:55:40.246Z,49.81
2023-04-11T13:58:08.470Z,50.55
2023-04-11T14:00:39.187Z,50.42
2023-04-11T14:03:08.048Z,50.01
2023-04-11T14:05:36.916Z,50.06
2023-04-11T14:08:08.836Z,50.67
2023-04-11T14:10:39.489Z,50.62
2023-04-11T14:13:12.883Z,49.99
2023-04-11T14:15:41.554Z,50.40
2023-04-11T14:18:10.966Z,50.81
2023-04-11T14:20:45.826Z,51.67
2023-04-11T14:23:16.588Z,53.32
2023-04-11T14:25:44.810Z,53.11
2023-04-11T14:28:13.751Z,53.81
2023-04-11T14:30:42.381Z,53.90
2023-04-11T14:33:11.329Z,54.25
2023-04-11T14:35:40.007Z,53.63
2023-04-11T14:38:08.499Z,54.82
2023-04-11T14:40:36.962Z,56.18
2023-04-11T14:43:06.487Z,55.92
2023-04-11T14:45:38.517Z,55.85
2023-04-11T14:48:07.592Z,55.52
2023-04-11T14:50:35.908Z,55.68
2023-04-11T14:53:04.941Z,56.26
2023-04-11T14:55:33.535Z,56.80
2023-04-11T14:58:08.844Z,57.11
2023-04-11T15:00:37.662Z,58.06
2023-04-11T15:03:06.784Z,60.04
2023-04-11T15:05:35.385Z,60.46
2023-04-11T15:08:04.196Z,59.60
2023-04-11T15:10:32.550Z,59.53
2023-04-11T15:13:00.921Z,58.59
2023-04-11T15:15:30.602Z,61.21
2023-04-11T15:18:18.270Z,62.45
2023-04-11T15:20:54.230Z,63.18
2023-04-11T15:23:26.985Z,61.46
2023-04-11T15:25:56.933Z,62.16
2023-04-11T15:28:32.263Z,60.26
2023-04-11T15:31:01.099Z,59.94
2023-04-11T15:33:31.386Z,59.94
2023-04-11T15:36:08.059Z,60.71
2023-04-11T15:38:37.064Z,60.81
2023-04-11T15:41:05.862Z,61.65
2023-04-11T15:43:36.567Z,62.86
2023-04-11T15:46:06.713Z,63.07
2023-04-11T15:48:41.514Z,65.03
2023-04-11T15:51:11.141Z,66.81
2023-04-11T15:53:40.379Z,68.14
2023-04-11T15:56:08.901Z,69.18
2023-04-11T15:58:37.913Z,70.08
2023-04-11T16:01:22.936Z,69.33
2023-04-11T16:03:58.249Z,69.96
2023-04-11T16:06:27.524Z,70.50
2023-04-11T16:08:56.189Z,71.64
2023-04-11T16:11:29.488Z,72.44
2023-04-11T16:13:58.196Z,72.75
2023-04-11T16:16:35.231Z,73.78
2023-04-11T16:19:04.175Z,74.41
2023-04-11T16:21:32.536Z,74.22
2023-04-11T16:24:01.133Z,74.78
2023-04-11T16:26:29.681Z,74.68
2023-04-11T16:28:58.131Z,75.39
2023-04-11T16:31:26.521Z,75.46
2023-04-11T16:33:55.419Z,75.53
2023-04-11T16:36:23.953Z,76.36
2023-04-11T16:38:53.268Z,76.31
2023-04-11T16:41:21.853Z,76.56
2023-04-11T16:43:51.866Z,77.43
2023-04-11T16:46:20.367Z,78.47
2023-04-11T16:48:48.760Z,78.25
2023-04-11T16:51:18.461Z,78.42
2023-04-11T16:53:47.538Z,79.70
2023-04-11T16:56:18.061Z,79.44
2023-04-11T16:58:46.386Z,80.65
2023-04-11T17:01:14.908Z,81.23
2023-04-11T17:03:45.661Z,81.03
2023-04-11T17:06:15.068Z,81.71
2023-04-11T17:08:44.970Z,82.44
2023-04-11T17:11:13.830Z,82.07
2023-04-11T17:13:42.214Z,82.94
2023-04-11T17:16:12.182Z,83.13
2023-04-11T17:18:40.911Z,83.22
2023-04-11T17:21:18.758Z,84.36
2023-04-11T17:23:47.372Z,83.55
2023-04-11T17:26:16.722Z,83.74
2023-04-11T17:28:47.264Z,83.57
2023-04-11T17:31:17.658Z,83.18
2023-04-11T17:33:46.871Z,83.64
2023-04-11T17:36:15.364Z,83.24
2023-04-11T17:38:45.390Z,81.67
2023-04-11T17:41:15.387Z,82.24
2023-04-11T17:43:44.306Z,82.19
2023-04-11T17:46:13.047Z,82.49
2023-04-11T17:48:42.230Z,82.73
2023-04-11T17:51:10.999Z,82.86
2023-04-11T17:53:44.131Z,84.17
2023-04-11T17:56:12.626Z,83.95
2023-04-11T17:58:44.902Z,83.90
2023-04-11T18:01:13.446Z,84.53
2023-04-11T18:03:44.090Z,83.90
2023-04-11T18:06:12.689Z,83.42
2023-04-11T18:11:14.551Z,81.81
2023-04-11T18:13:43.625Z,80.88
2023-04-11T18:16:15.801Z,80.68
2023-04-11T18:18:44.424Z,80.11
2023-04-11T18:21:12.912Z,80.34
2023-04-11T18:23:42.917Z,79.97
2023-04-11T18:26:11.385Z,79.80
2023-04-11T18:28:40.836Z,80.35
2023-04-11T18:31:09.841Z,80.98
2023-04-11T18:33:41.791Z,81.43
2023-04-11T18:36:18.341Z,81.21
2023-04-11T18:38:49.365Z,82.87
2023-04-11T18:41:18.663Z,83.22
2023-04-11T18:43:47.847Z,83.56
2023-04-11T18:46:16.357Z,83.73
2023-04-11T18:48:45.731Z,84.21
2023-04-11T18:51:14.199Z,84.12
2023-04-11T18:53:42.564Z,84.72
2023-04-11T18:56:12.048Z,85.38
2023-04-11T18:58:45.438Z,85.75
2023-04-11T19:01:17.101Z,85.87
2023-04-11T19:03:47.870Z,86.00
2023-04-11T19:06:17.232Z,85.74
2023-04-11T19:08:45.625Z,86.41
2023-04-11T19:11:13.957Z,86.19
2023-04-11T19:13:42.305Z,86.49
2023-04-11T19:16:12.277Z,87.93
2023-04-11T19:18:41.591Z,88.24
2023-04-11T19:21:09.857Z,88.61
2023-04-11T19:23:39.803Z,89.04
2023-04-11T19:26:08.782Z,89.12
2023-04-11T19:28:37.697Z,89.37
2023-04-11T19:31:08.647Z,90.50
2023-04-11T19:33:39.142Z,90.21
2023-04-11T19:36:07.587Z,89.88
2023-04-11T19:38:36.515Z,89.43
2023-04-11T19:41:11.256Z,90.29
2023-04-11T19:43:40.310Z,90.74
2023-04-11T19:46:12.514Z,90.93
2023-04-11T19:48:41.067Z,90.34
2023-04-11T19:51:10.956Z,90.03
2023-04-11T19:53:40.272Z,89.30
2023-04-11T19:56:12.318Z,89.78
2023-04-11T19:58:42.892Z,90.76
2023-04-11T20:01:11.399Z,90.79
2023-04-11T20:03:41.794Z,91.02
2023-04-11T20:06:12.726Z,91.70
2023-04-11T20:08:41.040Z,91.23
2023-04-11T20:11:14.731Z,91.05
2023-04-11T20:13:43.246Z,91.68
2023-04-11T20:16:11.867Z,92.55
2023-04-11T20:18:40.655Z,92.70
2023-04-11T20:21:09.517Z,92.51
2023-04-11T20:23:42.366Z,93.22
2023-04-11T20:26:10.725Z,93.61
2023-04-11T20:28:39.591Z,94.10
2023-04-11T20:31:08.515Z,93.88
2023-04-11T20:33:37.121Z,95.21
2023-04-11T20:36:07.996Z,96.14
2023-04-11T20:38:37.143Z,95.78
2023-04-11T20:41:06.367Z,95.27
2023-04-11T20:43:41.842Z,96.00
2023-04-11T20:46:13.585Z,95.76
2023-04-11T20:48:43.923Z,95.69
2023-04-11T20:51:14.278Z,95.72
2023-04-11T20:53:42.528Z,96.46
2023-04-11T20:56:11.947Z,96.29
2023-04-11T20:58:40.799Z,97.05
2023-04-11T21:04:29.037Z,97.06
2023-04-11T21:06:57.935Z,97.32
2023-04-11T21:09:26.550Z,97.95
2023-04-11T21:11:56.259Z,98.44
2023-04-11T21:14:29.305Z,98.64
2023-04-11T21:16:59.164Z,98.69
2023-04-11T21:19:27.538Z,98.85
2023-04-11T21:22:03.087Z,98.52
2023-04-11T21:24:33.006Z,98.15
2023-04-11T21:27:02.146Z,98.57
2023-04-11T21:29:30.590Z,98.30
2023-04-11T21:31:59.206Z,98.79
2023-04-11T21:34:27.778Z,98.55
2023-04-11T21:36:57.368Z,97.08
2023-04-11T21:39:32.452Z,97.41
2023-04-11T21:42:01.513Z,96.55
2023-04-11T21:44:30.071Z,96.61
2023-04-11T21:46:59.295Z,96.31
2023-04-11T21:49:27.952Z,96.49
2023-04-11T21:51:57.622Z,96.88
2023-04-11T21:54:26.366Z,95.98
2023-04-11T21:56:55.050Z,96.18
2023-04-11T21:59:25.061Z,95.92
2023-04-11T22:01:54.298Z,95.47
2023-04-11T22:04:23.509Z,95.69
2023-04-11T22:06:54.354Z,94.81
2023-04-11T22:09:24.028Z,95.95
2023-04-11T22:11:52.999Z,96.11
2023-04-11T22:14:27.415Z,95.77
2023-04-11T22:16:58.359Z,96.18
2023-04-11T22:19:28.879Z,95.96
2023-04-11T22:22:05.862Z,95.90
2023-04-11T22:24:34.854Z,95.50
2023-04-11T22:27:05.739Z,96.48
2023-04-11T22:29:34.766Z,96.89
2023-04-11T22:32:04.229Z,97.27
2023-04-11T22:34:32.770Z,97.74
2023-04-11T22:37:02.270Z,98.12
2023-04-11T22:39:31.023Z,97.78
2023-04-11T22:42:00.313Z,98.66
2023-04-11T22:44:29.085Z,99.62
2023-04-11T22:47:06.744Z,99.99
2023-04-11T22:49:42.081Z,100.00
2023-04-11T22:52:14.509Z,100.00
2023-04-11T22:54:43.097Z,100.00
2023-04-11T22:57:12.051Z,100.00
2023-04-11T22:59:42.463Z,100.00
2023-04-11T23:02:11.601Z,100.00
2023-04-11T23:04:40.005Z,100.00
2023-04-11T23:07:10.499Z,100.00
2023-04-11T23:09:39.090Z,100.00
2023-04-11T23:12:11.865Z,100.00
2023-04-11T23:14:42.794Z,100.00
2023-04-11T23:17:12.800Z,100.00
2023-04-11T23:19:42.538Z,100.00
2023-04-11T23:22:10.999Z,100.00
2023-04-11T23:24:40.308Z,100.00
2023-04-11T23:27:08.866Z,100.00
2023-04-11T23:29:38.696Z,100.00
2023-04-11T23:32:07.765Z,100.00
2023-04-11T23:34:38.637Z,100.00
2023-04-11T23:37:08.011Z,100.00
2023-04-11T23:39:36.697Z,100.00
2023-04-11T23:42:08.059Z,100.00
2023-04-11T23:44:37.006Z,100.00
2023-04-11T23:47:08.487Z,100.00
2023-04-11T23:49:37.474Z,100.00
2023-04-11T23:52:05.959Z,100.00
2023-04-11T23:54:36.817Z,100.00
2023-04-11T23:57:05.654Z,100.00
2023-04-11T23:59:34.233Z,100.00
